TimeCDT,TemperatureF,Dew PointF,Humidity,Sea Level PressureIn,VisibilityMPH,Wind Direction,Wind SpeedMPH,Gust SpeedMPH,PrecipitationIn,Events,Conditions,WindDirDegrees,DateUTC
12:15 AM,53.6,48.2,82,30.07,10.0,WNW,5.8,-,N/A,,Clear,300,2013-05-07 05:15:00
12:35 AM,50.0,48.2,94,30.07,-9999.0,NNW,3.5,-,N/A,,Unknown,330,2013-05-07 05:35:00
12:55 AM,51.8,48.2,88,30.07,9.0,Calm,Calm,-,N/A,,Clear,0,2013-05-07 05:55:00
1:15 AM,50.0,48.2,94,30.07,8.0,Calm,Calm,-,N/A,,Clear,0,2013-05-07 06:15:00
1:35 AM,53.6,50.0,88,30.06,10.0,Calm,Calm,-,N/A,,Clear,0,2013-05-07 06:35:00
1:55 AM,53.6,48.2,82,30.06,10.0,Calm,Calm,-,N/A,,Clear,0,2013-05-07 06:55:00
2:15 AM,51.8,50.0,94,30.05,9.0,NE,3.5,-,N/A,,Clear,40,2013-05-07 07:15:00
2:35 AM,51.8,48.2,88,30.05,7.0,Calm,Calm,-,N/A,,Clear,0,2013-05-07 07:35:00
2:55 AM,51.8,48.2,88,30.05,8.0,ENE,3.5,-,N/A,,Clear,60,2013-05-07 07:55:00
3:15 AM,50.0,48.2,94,30.04,7.0,East,4.6,-,N/A,,Clear,100,2013-05-07 08:15:00
3:35 AM,50.0,48.2,94,30.04,7.0,Calm,Calm,-,N/A,,Clear,0,2013-05-07 08:35:00
3:55 AM,51.8,48.2,88,30.04,8.0,Calm,Calm,-,N/A,,Clear,0,2013-05-07 08:55:00
4:15 AM,50.0,48.2,94,30.05,7.0,NW,3.5,-,N/A,,Clear,310,2013-05-07 09:15:00
4:35 AM,48.2,48.2,100,30.05,5.0,North,4.6,-,N/A,,Clear,350,2013-05-07 09:35:00
4:55 AM,48.2,48.2,100,30.05,5.0,North,8.1,-,N/A,,Clear,350,2013-05-07 09:55:00
5:15 AM,48.2,48.2,100,30.05,6.0,North,5.8,-,N/A,,Clear,360,2013-05-07 10:15:00
5:35 AM,50.0,48.2,94,30.05,5.0,NNW,5.8,-,N/A,,Clear,340,2013-05-07 10:35:00
5:55 AM,50.0,50.0,100,30.06,6.0,Calm,Calm,-,N/A,,Clear,0,2013-05-07 10:55:00
6:15 AM,48.2,48.2,100,30.06,4.0,ENE,4.6,-,N/A,,Clear,70,2013-05-07 11:15:00
6:35 AM,48.2,48.2,100,30.06,4.0,ENE,3.5,-,N/A,,Clear,70,2013-05-07 11:35:00
6:55 AM,50.0,48.2,94,30.06,4.0,Calm,Calm,-,N/A,,Clear,0,2013-05-07 11:55:00
7:15 AM,51.8,50.0,94,30.07,5.0,East,3.5,-,N/A,,Clear,100,2013-05-07 12:15:00
7:35 AM,51.8,50.0,94,30.07,5.0,Calm,Calm,-,N/A,,Partly Cloudy,0,2013-05-07 12:35:00
7:55 AM,53.6,51.8,94,30.07,5.0,Calm,Calm,-,N/A,,Clear,0,2013-05-07 12:55:00
8:15 AM,57.2,53.6,88,30.07,7.0,SE,3.5,-,N/A,,Clear,130,2013-05-07 13:15:00
8:35 AM,59.0,53.6,82,30.08,8.0,Calm,Calm,-,N/A,,Clear,0,2013-05-07 13:35:00
8:55 AM,59.0,51.8,77,30.08,9.0,Calm,Calm,-,N/A,,Clear,0,2013-05-07 13:55:00
9:15 AM,60.8,51.8,72,30.08,9.0,SE,3.5,-,N/A,,Clear,130,2013-05-07 14:15:00
9:35 AM,62.6,51.8,68,30.08,9.0,SSE,4.6,-,N/A,,Clear,160,2013-05-07 14:35:00
9:55 AM,62.6,51.8,68,30.08,9.0,Variable,4.6,-,N/A,,Clear,0,2013-05-07 14:55:00
10:15 AM,64.4,51.8,64,30.07,9.0,SSE,6.9,-,N/A,,Clear,160,2013-05-07 15:15:00
10:35 AM,64.4,51.8,64,30.07,9.0,South,5.8,-,N/A,,Partly Cloudy,170,2013-05-07 15:35:00
10:55 AM,64.4,51.8,64,30.07,9.0,Variable,4.6,-,N/A,,Scattered Clouds,0,2013-05-07 15:55:00
11:15 AM,64.4,51.8,64,30.06,10.0,South,5.8,-,N/A,,Mostly Cloudy,180,2013-05-07 16:15:00
11:35 AM,66.2,51.8,60,30.06,10.0,SSE,9.2,-,N/A,,Scattered Clouds,160,2013-05-07 16:35:00
11:55 AM,66.2,51.8,60,30.06,10.0,South,4.6,11.5,N/A,,Scattered Clouds,190,2013-05-07 16:55:00
12:15 PM,68.0,50.0,52,30.05,10.0,SSW,5.8,12.7,N/A,,Light Drizzle,210,2013-05-07 17:15:00
12:35 PM,69.8,50.0,49,30.05,10.0,South,6.9,15.0,N/A,,Mostly Cloudy,170,2013-05-07 17:35:00
12:55 PM,69.8,48.2,46,30.04,10.0,SE,8.1,-,N/A,,Scattered Clouds,130,2013-05-07 17:55:00
1:15 PM,69.8,48.2,46,30.03,10.0,South,10.4,-,N/A,,Mostly Cloudy,180,2013-05-07 18:15:00
1:35 PM,69.8,46.4,43,30.03,10.0,South,11.5,-,N/A,,Mostly Cloudy,170,2013-05-07 18:35:00
1:55 PM,71.6,46.4,41,30.02,10.0,South,13.8,-,N/A,,Partly Cloudy,190,2013-05-07 18:55:00
2:15 PM,71.6,44.6,38,30.02,10.0,Variable,5.8,17.3,N/A,,Scattered Clouds,0,2013-05-07 19:15:00
2:35 PM,73.4,42.8,33,30.01,10.0,SSW,9.2,18.4,N/A,,Scattered Clouds,210,2013-05-07 19:35:00
2:55 PM,71.6,42.8,35,30.01,10.0,South,8.1,15.0,N/A,,Scattered Clouds,170,2013-05-07 19:55:00
3:15 PM,71.6,41.0,33,30.00,10.0,Variable,3.5,16.1,N/A,,Mostly Cloudy,0,2013-05-07 20:15:00
3:35 PM,71.6,42.8,35,29.99,10.0,SSW,11.5,-,N/A,,Scattered Clouds,200,2013-05-07 20:35:00
3:55 PM,73.4,42.8,33,29.99,10.0,SW,9.2,19.6,N/A,,Scattered Clouds,220,2013-05-07 20:55:00
4:15 PM,73.4,42.8,33,29.98,10.0,South,10.4,-,N/A,,Scattered Clouds,190,2013-05-07 21:15:00
4:35 PM,73.4,42.8,33,29.98,10.0,SSW,13.8,21.9,N/A,,Mostly Cloudy,210,2013-05-07 21:35:00
4:55 PM,73.4,41.0,31,29.97,10.0,South,11.5,-,N/A,,Scattered Clouds,190,2013-05-07 21:55:00
5:15 PM,73.4,42.8,33,29.97,10.0,SW,11.5,19.6,N/A,,Scattered Clouds,220,2013-05-07 22:15:00
5:35 PM,75.2,42.8,31,29.97,10.0,South,8.1,-,N/A,,Mostly Cloudy,190,2013-05-07 22:35:00
5:55 PM,73.4,42.8,33,29.97,10.0,SW,13.8,-,N/A,,Mostly Cloudy,220,2013-05-07 22:55:00
6:15 PM,73.4,41.0,31,29.96,10.0,SSW,10.4,20.7,N/A,,Scattered Clouds,210,2013-05-07 23:15:00
6:35 PM,71.6,42.8,35,29.96,10.0,SW,10.4,17.3,N/A,,Scattered Clouds,220,2013-05-07 23:35:00
6:55 PM,71.6,42.8,35,29.96,10.0,SW,8.1,-,N/A,,Clear,220,2013-05-07 23:55:00
7:15 PM,71.6,42.8,35,29.96,10.0,SSW,8.1,-,N/A,,Clear,210,2013-05-08 00:15:00
7:35 PM,69.8,44.6,40,29.96,10.0,SSW,6.9,-,N/A,,Clear,200,2013-05-08 00:35:00
7:55 PM,68.0,44.6,43,29.96,10.0,South,6.9,-,N/A,,Clear,190,2013-05-08 00:55:00
8:15 PM,68.0,44.6,43,29.96,10.0,South,5.8,-,N/A,,Clear,180,2013-05-08 01:15:00
8:35 PM,66.2,42.8,43,29.96,10.0,South,6.9,-,N/A,,Clear,190,2013-05-08 01:35:00
8:55 PM,62.6,44.6,52,29.97,10.0,SE,8.1,-,N/A,,Partly Cloudy,140,2013-05-08 01:55:00
9:15 PM,62.6,46.4,55,29.97,10.0,SSE,10.4,-,N/A,,Scattered Clouds,160,2013-05-08 02:15:00
9:35 PM,62.6,48.2,59,29.96,10.0,SSE,10.4,-,N/A,,Mostly Cloudy,150,2013-05-08 02:35:00
9:55 PM,60.8,50.0,68,29.97,10.0,SSE,12.7,-,N/A,,Partly Cloudy,160,2013-05-08 02:55:00
10:15 PM,60.8,50.0,68,29.97,10.0,SSE,10.4,-,N/A,,Partly Cloudy,150,2013-05-08 03:15:00
10:35 PM,60.8,50.0,68,29.97,10.0,South,10.4,-,N/A,,Clear,170,2013-05-08 03:35:00
10:55 PM,57.2,48.2,72,29.97,10.0,South,8.1,-,N/A,,Clear,180,2013-05-08 03:55:00
11:15 PM,59.0,48.2,67,29.97,10.0,South,10.4,-,N/A,,Mostly Cloudy,170,2013-05-08 04:15:00
11:35 PM,59.0,48.2,67,29.97,10.0,South,8.1,-,N/A,,Overcast,190,2013-05-08 04:35:00
11:55 PM,59.0,48.2,67,29.97,10.0,South,8.1,-,N/A,,Overcast,180,2013-05-08 04:55:00